sensor_id;sensor_type;location;lat;lon;timestamp;temperature;humidity
75799;DHT22;65035;44.726;37.764;2022-12-29T00:00:17;17.70;118.99
75799;DHT22;65035;44.726;37.764;2022-12-29T00:01:20;17.68;118.99
75799;DHT22;65035;44.726;37.764;2022-12-29T00:02:23;17.70;118.99
75799;DHT22;65035;44.726;37.764;2022-12-29T00:03:28;17.68;118.99
75799;DHT22;65035;44.726;37.764;2022-12-29T00:04:35;17.67;118.99
75799;DHT22;65035;44.726;37.764;2022-12-29T00:05:38;17.66;118.99
75799;DHT22;65035;44.726;37.764;2022-12-29T00:06:42;17.70;118.99
75799;DHT22;65035;44.726;37.764;2022-12-29T00:07:45;18.14;118.99
75799;DHT22;65035;44.726;37.764;2022-12-29T00:08:47;18.09;118.99
75799;DHT22;65035;44.726;37.764;2022-12-29T00:09:50;17.67;118.99
75799;DHT22;65035;44.726;37.764;2022-12-29T00:10:54;17.75;118.99
75799;DHT22;65035;44.726;37.764;2022-12-29T00:12:54;17.70;118.99
75799;DHT22;65035;44.726;37.764;2022-12-29T00:15:02;17.65;118.99
75799;DHT22;65035;44.726;37.764;2022-12-29T00:16:24;17.67;118.99
75799;DHT22;65035;44.726;37.764;2022-12-29T00:17:28;17.60;118.99
75799;DHT22;65035;44.726;37.764;2022-12-29T00:18:31;17.83;118.99
75799;DHT22;65035;44.726;37.764;2022-12-29T00:20:21;18.05;118.99
75799;DHT22;65035;44.726;37.764;2022-12-29T00:21:43;18.05;118.99
75799;DHT22;65035;44.726;37.764;2022-12-29T00:23:08;18.04;118.99
75799;DHT22;65035;44.726;37.764;2022-12-29T00:24:30;18.06;118.99
75799;DHT22;65035;44.726;37.764;2022-12-29T00:25:51;18.06;118.99
75799;DHT22;65035;44.726;37.764;2022-12-29T00:28:08;18.04;118.99
75799;DHT22;65035;44.726;37.764;2022-12-29T00:29:40;18.04;118.99
75799;DHT22;65035;44.726;37.764;2022-12-29T00:31:11;17.98;118.99
75799;DHT22;65035;44.726;37.764;2022-12-29T00:32:37;18.06;118.99
75799;DHT22;65035;44.726;37.764;2022-12-29T00:33:58;17.99;118.99
75799;DHT22;65035;44.726;37.764;2022-12-29T00:35:36;18.03;118.99
75799;DHT22;65035;44.726;37.764;2022-12-29T00:36:42;18.02;118.99
75799;DHT22;65035;44.726;37.764;2022-12-29T00:37:47;18.03;118.99
75799;DHT22;65035;44.726;37.764;2022-12-29T00:39:12;18.00;118.99
75799;DHT22;65035;44.726;37.764;2022-12-29T00:40:37;18.00;118.99
75799;DHT22;65035;44.726;37.764;2022-12-29T00:42:07;17.97;118.99
75799;DHT22;65035;44.726;37.764;2022-12-29T00:43:30;18.06;118.99
75799;DHT22;65035;44.726;37.764;2022-12-29T00:45:54;18.04;118.99
75799;DHT22;65035;44.726;37.764;2022-12-29T00:46:57;18.02;118.99
75799;DHT22;65035;44.726;37.764;2022-12-29T00:47:59;17.99;118.99
75799;DHT22;65035;44.726;37.764;2022-12-29T00:49:06;18.00;118.99
75799;DHT22;65035;44.726;37.764;2022-12-29T00:50:27;18.03;118.99
75799;DHT22;65035;44.726;37.764;2022-12-29T00:51:30;17.98;118.99
75799;DHT22;65035;44.726;37.764;2022-12-29T00:52:34;18.00;118.99
75799;DHT22;65035;44.726;37.764;2022-12-29T00:53:47;17.99;118.99
75799;DHT22;65035;44.726;37.764;2022-12-29T00:54:49;17.96;118.99
75799;DHT22;65035;44.726;37.764;2022-12-29T00:55:52;17.99;118.99
75799;DHT22;65035;44.726;37.764;2022-12-29T00:56:55;17.97;118.99
75799;DHT22;65035;44.726;37.764;2022-12-29T00:57:58;18.04;118.99
75799;DHT22;65035;44.726;37.764;2022-12-29T00:59:09;18.08;118.99
75799;DHT22;65035;44.726;37.764;2022-12-29T01:00:13;18.04;118.99
75799;DHT22;65035;44.726;37.764;2022-12-29T01:02:32;18.08;118.99
75799;DHT22;65035;44.726;37.764;2022-12-29T01:03:36;18.07;118.99
75799;DHT22;65035;44.726;37.764;2022-12-29T01:04:42;18.04;118.99
75799;DHT22;65035;44.726;37.764;2022-12-29T01:06:54;17.99;118.99
75799;DHT22;65035;44.726;37.764;2022-12-29T01:07:57;17.70;118.99
75799;DHT22;65035;44.726;37.764;2022-12-29T01:09:00;17.56;118.99
75799;DHT22;65035;44.726;37.764;2022-12-29T01:10:21;17.52;118.99
75799;DHT22;65035;44.726;37.764;2022-12-29T01:11:23;17.54;118.99
75799;DHT22;65035;44.726;37.764;2022-12-29T01:15:00;17.55;118.99
75799;DHT22;65035;44.726;37.764;2022-12-29T01:16:06;17.55;118.99
75799;DHT22;65035;44.726;37.764;2022-12-29T01:20:08;17.51;118.99
75799;DHT22;65035;44.726;37.764;2022-12-29T01:27:53;17.47;118.99
75799;DHT22;65035;44.726;37.764;2022-12-29T01:28:55;17.45;118.99
75799;DHT22;65035;44.726;37.764;2022-12-29T01:29:58;17.45;118.99
75799;DHT22;65035;44.726;37.764;2022-12-29T01:31:49;17.47;118.99
75799;DHT22;65035;44.726;37.764;2022-12-29T01:32:52;17.50;118.99
75799;DHT22;65035;44.726;37.764;2022-12-29T01:33:55;17.50;118.99
75799;DHT22;65035;44.726;37.764;2022-12-29T01:36:38;17.46;118.99
75799;DHT22;65035;44.726;37.764;2022-12-29T01:37:44;17.46;118.99
75799;DHT22;65035;44.726;37.764;2022-12-29T01:38:47;17.46;118.99
75799;DHT22;65035;44.726;37.764;2022-12-29T01:39:50;17.50;118.99
75799;DHT22;65035;44.726;37.764;2022-12-29T01:45:20;17.45;118.99
75799;DHT22;65035;44.726;37.764;2022-12-29T01:47:50;17.48;118.99
75799;DHT22;65035;44.726;37.764;2022-12-29T01:50:14;17.49;118.99
75799;DHT22;65035;44.726;37.764;2022-12-29T01:51:20;17.54;118.99
75799;DHT22;65035;44.726;37.764;2022-12-29T01:52:27;17.51;118.99
75799;DHT22;65035;44.726;37.764;2022-12-29T01:53:33;17.48;118.99
75799;DHT22;65035;44.726;37.764;2022-12-29T01:54:43;17.52;118.99
75799;DHT22;65035;44.726;37.764;2022-12-29T01:55:50;17.54;118.99
75799;DHT22;65035;44.726;37.764;2022-12-29T01:56:58;17.40;118.99
75799;DHT22;65035;44.726;37.764;2022-12-29T01:58:04;17.46;118.99
75799;DHT22;65035;44.726;37.764;2022-12-29T01:59:15;17.47;118.99
75799;DHT22;65035;44.726;37.764;2022-12-29T02:00:19;17.52;118.99
75799;DHT22;65035;44.726;37.764;2022-12-29T02:01:21;17.49;118.99
75799;DHT22;65035;44.726;37.764;2022-12-29T02:02:24;17.47;118.99
75799;DHT22;65035;44.726;37.764;2022-12-29T02:03:28;17.54;118.99
75799;DHT22;65035;44.726;37.764;2022-12-29T02:04:35;17.49;118.99
75799;DHT22;65035;44.726;37.764;2022-12-29T02:05:53;17.55;118.99
75799;DHT22;65035;44.726;37.764;2022-12-29T02:08:33;17.51;118.99
75799;DHT22;65035;44.726;37.764;2022-12-29T02:09:36;17.51;118.99
75799;DHT22;65035;44.726;37.764;2022-12-29T02:10:42;17.51;118.99
75799;DHT22;65035;44.726;37.764;2022-12-29T02:11:49;17.49;118.99
75799;DHT22;65035;44.726;37.764;2022-12-29T02:12:53;17.50;118.99
75799;DHT22;65035;44.726;37.764;2022-12-29T02:17:49;17.51;118.99
75799;DHT22;65035;44.726;37.764;2022-12-29T02:23:48;17.52;118.99
75799;DHT22;65035;44.726;37.764;2022-12-29T02:26:14;17.56;118.99
75799;DHT22;65035;44.726;37.764;2022-12-29T02:29:25;17.56;118.99
75799;DHT22;65035;44.726;37.764;2022-12-29T02:32:07;17.53;118.99
75799;DHT22;65035;44.726;37.764;2022-12-29T02:33:21;17.48;118.99
75799;DHT22;65035;44.726;37.764;2022-12-29T02:39:48;17.48;118.99
75799;DHT22;65035;44.726;37.764;2022-12-29T02:42:21;17.53;118.99
75799;DHT22;65035;44.726;37.764;2022-12-29T02:43:45;17.51;118.99
75799;DHT22;65035;44.726;37.764;2022-12-29T02:45:13;17.51;118.99
75799;DHT22;65035;44.726;37.764;2022-12-29T02:47:49;17.53;118.99
75799;DHT22;65035;44.726;37.764;2022-12-29T02:52:24;17.55;118.99
75799;DHT22;65035;44.726;37.764;2022-12-29T02:53:32;17.54;118.99
75799;DHT22;65035;44.726;37.764;2022-12-29T02:54:55;17.51;118.99
75799;DHT22;65035;44.726;37.764;2022-12-29T02:55:57;17.54;118.99
75799;DHT22;65035;44.726;37.764;2022-12-29T02:57:00;17.49;118.99
75799;DHT22;65035;44.726;37.764;2022-12-29T02:59:12;17.48;118.99
75799;DHT22;65035;44.726;37.764;2022-12-29T03:06:01;17.50;118.99
75799;DHT22;65035;44.726;37.764;2022-12-29T03:07:17;17.46;118.99
75799;DHT22;65035;44.726;37.764;2022-12-29T03:08:44;17.51;118.99
75799;DHT22;65035;44.726;37.764;2022-12-29T03:11:14;17.49;118.99
75799;DHT22;65035;44.726;37.764;2022-12-29T03:13:07;17.47;118.99
75799;DHT22;65035;44.726;37.764;2022-12-29T03:14:35;17.45;118.99
75799;DHT22;65035;44.726;37.764;2022-12-29T03:16:23;17.41;118.99
75799;DHT22;65035;44.726;37.764;2022-12-29T03:19:07;17.48;118.99
75799;DHT22;65035;44.726;37.764;2022-12-29T03:20:17;17.47;118.99
75799;DHT22;65035;44.726;37.764;2022-12-29T03:21:49;17.51;118.99
75799;DHT22;65035;44.726;37.764;2022-12-29T03:23:16;17.49;118.99
75799;DHT22;65035;44.726;37.764;2022-12-29T03:24:22;17.49;118.99
75799;DHT22;65035;44.726;37.764;2022-12-29T03:25:36;17.50;118.99
75799;DHT22;65035;44.726;37.764;2022-12-29T03:26:45;17.48;118.99
75799;DHT22;65035;44.726;37.764;2022-12-29T03:27:56;17.48;118.99
75799;DHT22;65035;44.726;37.764;2022-12-29T03:29:01;17.49;118.99
75799;DHT22;65035;44.726;37.764;2022-12-29T03:30:05;17.47;118.99
75799;DHT22;65035;44.726;37.764;2022-12-29T03:31:10;17.44;118.99
75799;DHT22;65035;44.726;37.764;2022-12-29T03:32:16;17.47;118.99
75799;DHT22;65035;44.726;37.764;2022-12-29T03:33:23;17.50;118.99
75799;DHT22;65035;44.726;37.764;2022-12-29T03:34:38;17.47;118.99
75799;DHT22;65035;44.726;37.764;2022-12-29T03:35:42;17.49;118.99
75799;DHT22;65035;44.726;37.764;2022-12-29T03:36:53;17.49;118.99
75799;DHT22;65035;44.726;37.764;2022-12-29T03:38:14;17.50;118.99
75799;DHT22;65035;44.726;37.764;2022-12-29T03:39:20;17.50;118.99
75799;DHT22;65035;44.726;37.764;2022-12-29T03:40:27;17.55;118.99
75799;DHT22;65035;44.726;37.764;2022-12-29T03:41:34;17.53;118.99
75799;DHT22;65035;44.726;37.764;2022-12-29T03:42:39;17.51;118.99
75799;DHT22;65035;44.726;37.764;2022-12-29T03:43:43;17.53;118.99
75799;DHT22;65035;44.726;37.764;2022-12-29T03:44:47;17.51;118.99
75799;DHT22;65035;44.726;37.764;2022-12-29T03:46:38;17.53;118.99
75799;DHT22;65035;44.726;37.764;2022-12-29T03:47:42;17.55;118.99
75799;DHT22;65035;44.726;37.764;2022-12-29T03:48:46;17.53;118.99
75799;DHT22;65035;44.726;37.764;2022-12-29T03:49:49;17.54;118.99
75799;DHT22;65035;44.726;37.764;2022-12-29T03:50:52;17.51;118.99
75799;DHT22;65035;44.726;37.764;2022-12-29T03:51:55;17.53;118.99
75799;DHT22;65035;44.726;37.764;2022-12-29T03:52:59;17.52;118.99
75799;DHT22;65035;44.726;37.764;2022-12-29T03:54:03;17.53;118.99
75799;DHT22;65035;44.726;37.764;2022-12-29T03:55:16;17.54;118.99
75799;DHT22;65035;44.726;37.764;2022-12-29T03:56:19;17.53;118.99
75799;DHT22;65035;44.726;37.764;2022-12-29T03:57:23;17.50;118.99
75799;DHT22;65035;44.726;37.764;2022-12-29T03:58:46;17.53;118.99
75799;DHT22;65035;44.726;37.764;2022-12-29T03:59:53;17.53;118.99
75799;DHT22;65035;44.726;37.764;2022-12-29T04:00:56;17.52;118.99
75799;DHT22;65035;44.726;37.764;2022-12-29T04:01:59;17.55;118.99
75799;DHT22;65035;44.726;37.764;2022-12-29T04:03:04;17.58;118.99
75799;DHT22;65035;44.726;37.764;2022-12-29T04:04:17;17.56;118.99
75799;DHT22;65035;44.726;37.764;2022-12-29T04:05:21;17.59;118.99
75799;DHT22;65035;44.726;37.764;2022-12-29T04:06:26;17.59;118.99
75799;DHT22;65035;44.726;37.764;2022-12-29T04:07:35;17.58;118.99
75799;DHT22;65035;44.726;37.764;2022-12-29T04:08:40;17.55;118.99
75799;DHT22;65035;44.726;37.764;2022-12-29T04:09:43;17.56;118.99
75799;DHT22;65035;44.726;37.764;2022-12-29T04:10:51;17.58;118.99
75799;DHT22;65035;44.726;37.764;2022-12-29T04:11:56;17.55;118.99
75799;DHT22;65035;44.726;37.764;2022-12-29T04:12:59;17.53;118.99
75799;DHT22;65035;44.726;37.764;2022-12-29T04:14:05;17.55;118.99
75799;DHT22;65035;44.726;37.764;2022-12-29T04:15:13;17.56;118.99
75799;DHT22;65035;44.726;37.764;2022-12-29T04:16:16;17.61;118.99
75799;DHT22;65035;44.726;37.764;2022-12-29T04:17:19;17.58;118.99
75799;DHT22;65035;44.726;37.764;2022-12-29T04:18:24;17.53;118.99
75799;DHT22;65035;44.726;37.764;2022-12-29T04:19:27;17.52;118.99
75799;DHT22;65035;44.726;37.764;2022-12-29T04:20:30;17.52;118.99
75799;DHT22;65035;44.726;37.764;2022-12-29T04:21:51;17.56;118.99
75799;DHT22;65035;44.726;37.764;2022-12-29T04:23:02;17.52;118.99
75799;DHT22;65035;44.726;37.764;2022-12-29T04:24:06;17.52;118.99
75799;DHT22;65035;44.726;37.764;2022-12-29T04:25:14;17.53;118.99
75799;DHT22;65035;44.726;37.764;2022-12-29T04:26:18;17.53;118.99
75799;DHT22;65035;44.726;37.764;2022-12-29T04:27:44;17.60;118.99
75799;DHT22;65035;44.726;37.764;2022-12-29T04:29:07;17.54;118.99
75799;DHT22;65035;44.726;37.764;2022-12-29T04:30:19;17.59;118.99
75799;DHT22;65035;44.726;37.764;2022-12-29T04:31:32;17.56;118.99
75799;DHT22;65035;44.726;37.764;2022-12-29T04:32:38;17.61;118.99
75799;DHT22;65035;44.726;37.764;2022-12-29T04:33:51;17.54;118.99
75799;DHT22;65035;44.726;37.764;2022-12-29T04:34:54;17.59;118.99
75799;DHT22;65035;44.726;37.764;2022-12-29T04:35:57;17.55;118.99
75799;DHT22;65035;44.726;37.764;2022-12-29T04:37:00;17.54;118.99
75799;DHT22;65035;44.726;37.764;2022-12-29T04:38:03;17.54;118.99
75799;DHT22;65035;44.726;37.764;2022-12-29T04:39:07;17.58;118.99
75799;DHT22;65035;44.726;37.764;2022-12-29T04:40:13;17.56;118.99
75799;DHT22;65035;44.726;37.764;2022-12-29T04:41:19;17.56;118.99
75799;DHT22;65035;44.726;37.764;2022-12-29T04:42:23;17.55;118.99
75799;DHT22;65035;44.726;37.764;2022-12-29T04:43:27;17.51;118.99
75799;DHT22;65035;44.726;37.764;2022-12-29T04:45:09;17.58;118.99
75799;DHT22;65035;44.726;37.764;2022-12-29T04:46:33;17.53;118.99
75799;DHT22;65035;44.726;37.764;2022-12-29T04:47:44;17.56;118.99
75799;DHT22;65035;44.726;37.764;2022-12-29T04:49:05;17.59;118.99
75799;DHT22;65035;44.726;37.764;2022-12-29T04:50:34;17.54;118.99
75799;DHT22;65035;44.726;37.764;2022-12-29T04:51:58;17.53;118.99
75799;DHT22;65035;44.726;37.764;2022-12-29T04:53:01;17.56;118.99
75799;DHT22;65035;44.726;37.764;2022-12-29T04:54:03;17.53;118.99
75799;DHT22;65035;44.726;37.764;2022-12-29T04:55:07;17.50;118.99
75799;DHT22;65035;44.726;37.764;2022-12-29T04:56:10;17.51;118.99
75799;DHT22;65035;44.726;37.764;2022-12-29T04:57:13;17.49;118.99
75799;DHT22;65035;44.726;37.764;2022-12-29T04:58:17;17.56;118.99
75799;DHT22;65035;44.726;37.764;2022-12-29T04:59:24;17.51;118.99
75799;DHT22;65035;44.726;37.764;2022-12-29T05:00:31;17.51;118.99
75799;DHT22;65035;44.726;37.764;2022-12-29T05:01:34;17.54;118.99
75799;DHT22;65035;44.726;37.764;2022-12-29T05:02:37;17.54;118.99
75799;DHT22;65035;44.726;37.764;2022-12-29T05:03:40;17.49;118.99
75799;DHT22;65035;44.726;37.764;2022-12-29T05:04:43;17.54;118.99
75799;DHT22;65035;44.726;37.764;2022-12-29T05:05:46;17.53;118.99
75799;DHT22;65035;44.726;37.764;2022-12-29T05:06:48;17.54;118.99
75799;DHT22;65035;44.726;37.764;2022-12-29T05:07:52;17.54;118.99
75799;DHT22;65035;44.726;37.764;2022-12-29T05:08:55;17.51;118.99
75799;DHT22;65035;44.726;37.764;2022-12-29T05:09:58;17.49;118.99
75799;DHT22;65035;44.726;37.764;2022-12-29T05:11:01;17.50;118.99
75799;DHT22;65035;44.726;37.764;2022-12-29T05:12:04;17.51;118.99
75799;DHT22;65035;44.726;37.764;2022-12-29T05:13:09;17.55;118.99
75799;DHT22;65035;44.726;37.764;2022-12-29T05:14:13;17.55;118.99
75799;DHT22;65035;44.726;37.764;2022-12-29T05:15:16;17.53;118.99
75799;DHT22;65035;44.726;37.764;2022-12-29T05:16:19;17.52;118.99
75799;DHT22;65035;44.726;37.764;2022-12-29T05:17:22;17.52;118.99
75799;DHT22;65035;44.726;37.764;2022-12-29T05:18:26;17.49;118.99
75799;DHT22;65035;44.726;37.764;2022-12-29T05:19:29;17.53;118.99
75799;DHT22;65035;44.726;37.764;2022-12-29T05:20:31;17.53;118.99
75799;DHT22;65035;44.726;37.764;2022-12-29T05:21:34;17.47;118.99
75799;DHT22;65035;44.726;37.764;2022-12-29T05:22:37;17.47;118.99
75799;DHT22;65035;44.726;37.764;2022-12-29T05:23:40;17.51;118.99
75799;DHT22;65035;44.726;37.764;2022-12-29T05:24:43;17.49;118.99
75799;DHT22;65035;44.726;37.764;2022-12-29T05:25:46;17.51;118.99
75799;DHT22;65035;44.726;37.764;2022-12-29T05:26:59;17.52;118.99
75799;DHT22;65035;44.726;37.764;2022-12-29T05:28:13;17.49;118.99
75799;DHT22;65035;44.726;37.764;2022-12-29T05:29:23;17.47;118.99
75799;DHT22;65035;44.726;37.764;2022-12-29T05:30:25;17.46;118.99
75799;DHT22;65035;44.726;37.764;2022-12-29T05:31:28;17.45;118.99
75799;DHT22;65035;44.726;37.764;2022-12-29T05:32:31;17.47;118.99
75799;DHT22;65035;44.726;37.764;2022-12-29T05:33:34;17.49;118.99
75799;DHT22;65035;44.726;37.764;2022-12-29T05:34:37;17.48;118.99
75799;DHT22;65035;44.726;37.764;2022-12-29T05:35:40;17.48;118.99
75799;DHT22;65035;44.726;37.764;2022-12-29T05:36:44;17.50;118.99
75799;DHT22;65035;44.726;37.764;2022-12-29T05:37:48;17.52;118.99
75799;DHT22;65035;44.726;37.764;2022-12-29T05:38:51;17.49;118.99
75799;DHT22;65035;44.726;37.764;2022-12-29T05:39:54;17.48;118.99
75799;DHT22;65035;44.726;37.764;2022-12-29T05:41:02;17.52;118.99
75799;DHT22;65035;44.726;37.764;2022-12-29T05:42:39;17.52;118.99
75799;DHT22;65035;44.726;37.764;2022-12-29T05:44:59;17.47;118.99
75799;DHT22;65035;44.726;37.764;2022-12-29T05:46:25;17.50;118.99
75799;DHT22;65035;44.726;37.764;2022-12-29T05:47:43;17.48;118.99
75799;DHT22;65035;44.726;37.764;2022-12-29T05:49:14;17.53;118.99
75799;DHT22;65035;44.726;37.764;2022-12-29T05:50:37;17.51;118.99
75799;DHT22;65035;44.726;37.764;2022-12-29T05:51:46;17.50;118.99
75799;DHT22;65035;44.726;37.764;2022-12-29T05:52:49;17.48;118.99
75799;DHT22;65035;44.726;37.764;2022-12-29T05:53:52;17.50;118.99
75799;DHT22;65035;44.726;37.764;2022-12-29T05:54:55;17.51;118.99
75799;DHT22;65035;44.726;37.764;2022-12-29T05:56:00;17.51;118.99
75799;DHT22;65035;44.726;37.764;2022-12-29T05:57:03;17.51;118.99
75799;DHT22;65035;44.726;37.764;2022-12-29T05:58:07;17.51;118.99
75799;DHT22;65035;44.726;37.764;2022-12-29T05:59:10;17.44;118.99
75799;DHT22;65035;44.726;37.764;2022-12-29T06:00:14;17.49;118.99
75799;DHT22;65035;44.726;37.764;2022-12-29T06:01:18;17.54;118.99
75799;DHT22;65035;44.726;37.764;2022-12-29T06:02:21;17.48;118.99
75799;DHT22;65035;44.726;37.764;2022-12-29T06:03:24;17.52;118.99
75799;DHT22;65035;44.726;37.764;2022-12-29T06:04:28;17.50;118.99
75799;DHT22;65035;44.726;37.764;2022-12-29T06:05:31;17.48;118.99
75799;DHT22;65035;44.726;37.764;2022-12-29T06:06:37;17.45;118.99
75799;DHT22;65035;44.726;37.764;2022-12-29T06:07:46;17.46;118.99
75799;DHT22;65035;44.726;37.764;2022-12-29T06:08:51;17.46;118.99
75799;DHT22;65035;44.726;37.764;2022-12-29T06:09:54;17.49;118.99
75799;DHT22;65035;44.726;37.764;2022-12-29T06:10:57;17.44;118.99
75799;DHT22;65035;44.726;37.764;2022-12-29T06:12:00;17.49;118.99
75799;DHT22;65035;44.726;37.764;2022-12-29T06:13:03;17.48;118.99
75799;DHT22;65035;44.726;37.764;2022-12-29T06:14:10;17.47;118.99
75799;DHT22;65035;44.726;37.764;2022-12-29T06:15:13;17.46;118.99
75799;DHT22;65035;44.726;37.764;2022-12-29T06:16:17;17.43;118.99
75799;DHT22;65035;44.726;37.764;2022-12-29T06:17:21;17.46;118.99
75799;DHT22;65035;44.726;37.764;2022-12-29T06:18:25;17.47;118.99
75799;DHT22;65035;44.726;37.764;2022-12-29T06:19:27;17.52;118.99
75799;DHT22;65035;44.726;37.764;2022-12-29T06:20:30;17.53;118.99
75799;DHT22;65035;44.726;37.764;2022-12-29T06:21:33;17.51;118.99
75799;DHT22;65035;44.726;37.764;2022-12-29T06:22:36;17.47;118.99
75799;DHT22;65035;44.726;37.764;2022-12-29T06:23:39;17.48;118.99
75799;DHT22;65035;44.726;37.764;2022-12-29T06:24:42;17.52;118.99
75799;DHT22;65035;44.726;37.764;2022-12-29T06:25:47;17.50;118.99
75799;DHT22;65035;44.726;37.764;2022-12-29T06:26:51;17.48;118.99
75799;DHT22;65035;44.726;37.764;2022-12-29T06:27:54;17.51;118.99
75799;DHT22;65035;44.726;37.764;2022-12-29T06:28:56;17.48;118.99
75799;DHT22;65035;44.726;37.764;2022-12-29T06:29:59;17.49;118.99
75799;DHT22;65035;44.726;37.764;2022-12-29T06:31:04;17.49;118.99
75799;DHT22;65035;44.726;37.764;2022-12-29T06:32:07;17.51;118.99
75799;DHT22;65035;44.726;37.764;2022-12-29T06:33:11;17.46;118.99
75799;DHT22;65035;44.726;37.764;2022-12-29T06:34:14;17.44;118.99
75799;DHT22;65035;44.726;37.764;2022-12-29T06:35:16;17.46;118.99
75799;DHT22;65035;44.726;37.764;2022-12-29T06:36:23;17.45;118.99
75799;DHT22;65035;44.726;37.764;2022-12-29T06:37:26;17.48;118.99
75799;DHT22;65035;44.726;37.764;2022-12-29T06:38:29;17.47;118.99
75799;DHT22;65035;44.726;37.764;2022-12-29T06:39:33;17.47;118.99
75799;DHT22;65035;44.726;37.764;2022-12-29T06:40:42;17.50;118.99
75799;DHT22;65035;44.726;37.764;2022-12-29T06:41:56;17.51;118.99
75799;DHT22;65035;44.726;37.764;2022-12-29T06:43:25;17.46;118.99
75799;DHT22;65035;44.726;37.764;2022-12-29T06:44:36;17.49;118.99
75799;DHT22;65035;44.726;37.764;2022-12-29T06:45:43;17.49;118.99
75799;DHT22;65035;44.726;37.764;2022-12-29T06:46:46;17.47;118.99
75799;DHT22;65035;44.726;37.764;2022-12-29T06:47:49;17.45;118.99
75799;DHT22;65035;44.726;37.764;2022-12-29T06:48:52;17.54;118.99
75799;DHT22;65035;44.726;37.764;2022-12-29T06:50:05;17.45;118.99
75799;DHT22;65035;44.726;37.764;2022-12-29T06:51:08;17.51;118.99
75799;DHT22;65035;44.726;37.764;2022-12-29T06:52:11;17.46;118.99
75799;DHT22;65035;44.726;37.764;2022-12-29T06:53:14;17.54;118.99
75799;DHT22;65035;44.726;37.764;2022-12-29T06:54:17;17.55;118.99
75799;DHT22;65035;44.726;37.764;2022-12-29T06:55:20;17.53;118.99
75799;DHT22;65035;44.726;37.764;2022-12-29T06:56:23;17.49;118.99
75799;DHT22;65035;44.726;37.764;2022-12-29T06:57:26;17.50;118.99
75799;DHT22;65035;44.726;37.764;2022-12-29T06:58:39;17.54;118.99
75799;DHT22;65035;44.726;37.764;2022-12-29T06:59:42;17.51;118.99
75799;DHT22;65035;44.726;37.764;2022-12-29T07:00:45;17.54;118.99
75799;DHT22;65035;44.726;37.764;2022-12-29T07:02:36;17.49;118.99
75799;DHT22;65035;44.726;37.764;2022-12-29T07:03:41;17.49;118.99
75799;DHT22;65035;44.726;37.764;2022-12-29T07:04:44;17.49;118.99
75799;DHT22;65035;44.726;37.764;2022-12-29T07:05:47;17.54;118.99
75799;DHT22;65035;44.726;37.764;2022-12-29T07:06:50;17.56;118.99
75799;DHT22;65035;44.726;37.764;2022-12-29T07:07:54;17.53;118.99
75799;DHT22;65035;44.726;37.764;2022-12-29T07:08:57;17.49;118.99
75799;DHT22;65035;44.726;37.764;2022-12-29T07:10:02;17.53;118.99
75799;DHT22;65035;44.726;37.764;2022-12-29T07:11:15;17.50;118.99
75799;DHT22;65035;44.726;37.764;2022-12-29T07:12:18;17.53;118.99
75799;DHT22;65035;44.726;37.764;2022-12-29T07:13:21;17.52;118.99
75799;DHT22;65035;44.726;37.764;2022-12-29T07:14:24;17.55;118.99
75799;DHT22;65035;44.726;37.764;2022-12-29T07:15:27;17.54;118.99
75799;DHT22;65035;44.726;37.764;2022-12-29T07:16:29;17.53;118.99
75799;DHT22;65035;44.726;37.764;2022-12-29T07:17:32;17.54;118.99
75799;DHT22;65035;44.726;37.764;2022-12-29T07:18:37;17.51;118.99
75799;DHT22;65035;44.726;37.764;2022-12-29T07:19:45;17.56;118.99
75799;DHT22;65035;44.726;37.764;2022-12-29T07:20:48;17.56;118.99
75799;DHT22;65035;44.726;37.764;2022-12-29T07:21:50;17.58;118.99
75799;DHT22;65035;44.726;37.764;2022-12-29T07:22:53;17.53;118.99
75799;DHT22;65035;44.726;37.764;2022-12-29T07:23:56;17.50;118.99
75799;DHT22;65035;44.726;37.764;2022-12-29T07:24:59;17.60;118.99
75799;DHT22;65035;44.726;37.764;2022-12-29T07:26:04;17.53;118.99
75799;DHT22;65035;44.726;37.764;2022-12-29T07:27:07;17.55;118.99
75799;DHT22;65035;44.726;37.764;2022-12-29T07:28:11;17.52;118.99
75799;DHT22;65035;44.726;37.764;2022-12-29T07:29:14;17.59;118.99
75799;DHT22;65035;44.726;37.764;2022-12-29T07:30:16;17.54;118.99
75799;DHT22;65035;44.726;37.764;2022-12-29T07:31:21;17.58;118.99
75799;DHT22;65035;44.726;37.764;2022-12-29T07:32:24;17.58;118.99
75799;DHT22;65035;44.726;37.764;2022-12-29T07:33:31;17.58;118.99
75799;DHT22;65035;44.726;37.764;2022-12-29T07:34:34;17.56;118.99
75799;DHT22;65035;44.726;37.764;2022-12-29T07:35:36;17.55;118.99
75799;DHT22;65035;44.726;37.764;2022-12-29T07:36:39;17.56;118.99
75799;DHT22;65035;44.726;37.764;2022-12-29T07:37:42;17.52;118.99
75799;DHT22;65035;44.726;37.764;2022-12-29T07:38:45;17.54;118.99
75799;DHT22;65035;44.726;37.764;2022-12-29T07:39:48;17.49;118.99
75799;DHT22;65035;44.726;37.764;2022-12-29T07:40:50;17.56;118.99
75799;DHT22;65035;44.726;37.764;2022-12-29T07:41:53;17.56;118.99
75799;DHT22;65035;44.726;37.764;2022-12-29T07:43:00;17.51;118.99
75799;DHT22;65035;44.726;37.764;2022-12-29T07:44:14;17.54;118.99
75799;DHT22;65035;44.726;37.764;2022-12-29T07:45:33;17.56;118.99
75799;DHT22;65035;44.726;37.764;2022-12-29T07:46:45;17.55;118.99
75799;DHT22;65035;44.726;37.764;2022-12-29T07:47:50;17.54;118.99
75799;DHT22;65035;44.726;37.764;2022-12-29T07:48:57;17.49;118.99
75799;DHT22;65035;44.726;37.764;2022-12-29T07:50:00;17.51;118.99
75799;DHT22;65035;44.726;37.764;2022-12-29T07:51:03;17.58;118.99
75799;DHT22;65035;44.726;37.764;2022-12-29T07:52:06;17.59;118.99
75799;DHT22;65035;44.726;37.764;2022-12-29T07:53:09;17.59;118.99
75799;DHT22;65035;44.726;37.764;2022-12-29T07:54:12;17.59;118.99
75799;DHT22;65035;44.726;37.764;2022-12-29T07:55:15;17.59;118.99
75799;DHT22;65035;44.726;37.764;2022-12-29T07:56:18;17.60;118.99
75799;DHT22;65035;44.726;37.764;2022-12-29T07:57:21;17.59;118.99
75799;DHT22;65035;44.726;37.764;2022-12-29T07:58:27;17.61;118.99
75799;DHT22;65035;44.726;37.764;2022-12-29T07:59:30;17.60;118.99
75799;DHT22;65035;44.726;37.764;2022-12-29T08:00:33;17.61;118.99
75799;DHT22;65035;44.726;37.764;2022-12-29T08:01:36;17.60;118.99